GSPO2: Great Salt Plains Lake

Data processed at Thu May 23 2019 23:50


All information presented herein is the property of the government of the United States of America and may be revised or deleted at any time without prior notice.
Dissemination of this information without the expressed written consent of the Public Affairs Office, Tulsa District U.S. Army Corps of Engineers is strictly prohibited.
These data are gathered electronically and, as presented, have not undergone any form of quality control. These data are not guaranteed to be valid or correct.
Go to home page.
Go to station list.
Go to home page.

Upstream stations:

Downstream station:
Previous Day
Next Day
Current Day
    
SHEF ID:       GSPO2     Great Salt Plains Lake
STATION TYPE:  RESERVOIR
Flood Pool:  Bottom =  1125.00, Top =  1138.50

               PRECIP ELEVATION   STORAGE    INFLOW   RELEASE  AIR-TEMP  WIND-DIRWIND-SPEED REL-HUMID SOLAR-RAD   VOLTAGE  BAT-LOAD
                   in        ft     ac-ft       cfs       cfs         F       deg       mph         %      W/m2      volt      volt
              Ccp-Rev   Ccp-Rev   Ccp-Rev  Rev-Regi  Rev-Regi   Ccp-Rev   Ccp-Rev   Ccp-Rev   Ccp-Rev   Ccp-Rev   Ccp-Rev   Ccp-Rev
(US/Central)
05/23 00:00      0.00   1132.21    123331     23286      8640     67.26     60.30      7.30     73.16      0.00     13.64      ----
05/23 01:00      0.00   1132.31    125222     23338      8708     66.22     67.40      6.80     75.92      0.00     13.64      ----
05/23 02:00      0.00   1132.33    125600     26598      8756     65.52     71.10      6.90     78.60      0.00     13.63      ----
05/23 03:00      0.00   1132.38    126546     25285      8784     64.81     73.80      6.90     79.50      0.00     13.63      ----
05/23 04:00      0.00   1132.53    129382     21675      8864     63.88     69.60      6.20     81.76      0.00     13.63      ----
05/23 05:00      0.00   1132.57    130139     21261      8940     63.23     60.00      5.10     85.93      0.00     13.63      ----
05/23 06:00      0.00   1132.59    130517     21305      8964     63.19     53.90      5.10     87.41      0.00     13.63      ----
05/23 07:00      0.00   1132.60    130706     16764      8976     63.48     56.00      6.30     87.36      0.00     13.63      ----
05/23 08:00      0.00   1132.65    131651     17708      9000     63.54     60.50      7.20     89.24     30.10     13.63      ----
05/23 09:00      0.00   1132.70    132597     18655      9040     64.53     65.80      6.30     91.47    112.30     13.63      ----
05/23 10:00      0.00   1132.76    133732     20981      9084     64.90     62.20      5.80     93.74    101.60     13.64      ----
05/23 11:00      0.00   1132.80    134488     20956      9124     67.32     68.00      6.30     92.49    286.40     13.63      ----
05/23 12:00      0.00   1132.86    135623     20481      9164     71.56     69.10      6.20     90.17    649.90     13.63      ----
05/23 13:00      0.00   1132.91    136568     16387      9208     76.80     74.00      5.30     88.84    472.10     13.64      ----
05/23 14:00      0.00   1132.95    137324     17256      9244     79.56    113.00      6.90     86.69    363.90     13.64      ----
05/23 15:00      0.00   1132.92    136757     16873      9248     81.79    155.10     10.60     77.20    396.40     13.64      ----
05/23 16:00      0.00   1132.98    137892     16600      9260     79.20    153.60      7.10     81.97    128.60     13.64      ----
05/23 17:00      0.00   1133.03    138885     18730      9304     79.32    141.80      4.60     83.59    142.00     13.64      ----
05/23 18:00      0.00   1133.07    139704     20604      9340     79.34    124.70      3.30     85.44    118.40     13.64      ----
05/23 19:00      0.00   1133.15    141343     16079      9388     80.40    131.50      3.30     82.19    107.30     13.65      ----
05/23 20:00      0.00   1133.16    141548     16664      9424     79.88    145.90      5.50     79.66     42.60     13.65      ----
05/23 21:00      0.00   1133.11    140524     16197      9408     78.04    149.40      5.70     80.62      0.00     13.64      ----
05/23 22:00      0.00   1133.17    141753     15226      9412     76.37    146.30      4.80     83.68      0.00     13.64      ----
05/23 23:00      0.00   1133.20    142368     14750      9448     74.86    114.50      2.40     87.87      0.00     13.64      ----